Terminal Aerodrome Forecast
Issued by NWS

Home | Current Version | Previous Version | Text Only | Print | Product List | Glossary On
Versions: 1 2 3 4 5 6 7 8 9 10 11 12 13 14 15 16 17 18
000
FTAK31 PAFA 261909 AAA
TAFAMC
TAF AMD
PAMC 261909Z 2619/2718 00000KT 1/4SM FZFG VV002
      TEMPO 2620/2622 1SM BR
     FM262200 VRB04KT P6SM BKN100
     FM271400 VRB03KT 1/2SM FG OVC015=

USA.gov is the U.S. government's official web portal to all federal, state and local government web resources and services.